Time;durP1;ratioP1;P1;durP2;ratioP2;P2;SDS_P1;SDS_P2;PMS_P1;PMS_P2;Temp;Humidity;BMP_temperature;BMP_pressure;BME280_temperature;BME280_humidity;BME280_pressure;Samples;Min_cycle;Max_cycle;Signal;HPM_P1;HPM_P2
2024/04/10 00:01:06;;;;;;;7.13;1.43;;;6.70;99.90;;;7.64;100.00;98643.81;5383654;26;20753;-75
2024/04/10 00:03:37;;;;;;;3.10;1.57;;;6.70;99.90;;;7.56;100.00;98636.78;5378046;26;20487;-75
2024/04/10 00:06:09;;;;;;;2.00;1.00;;;6.60;99.90;;;7.49;100.00;98647.00;5380374;26;20574;-75
2024/04/10 00:08:40;;;;;;;3.77;1.40;;;6.50;99.90;;;7.47;100.00;98659.31;5383370;26;21110;-75
2024/04/10 00:11:07;;;;;;;4.40;1.33;;;6.50;99.90;;;7.48;100.00;98653.16;5381295;26;20593;-75
2024/04/10 00:13:38;;;;;;;5.10;1.50;;;6.50;99.90;;;7.42;100.00;98661.59;5379823;26;20612;-75
2024/04/10 00:16:07;;;;;;;5.50;1.33;;;6.50;99.90;;;7.53;100.00;98663.13;5378147;26;21110;-75
2024/04/10 00:18:39;;;;;;;4.20;1.70;;;6.60;99.90;;;7.53;100.00;98663.91;5381239;26;20611;-75
2024/04/10 00:21:09;;;;;;;3.17;1.93;;;6.50;99.90;;;7.47;100.00;98659.31;5381132;26;20889;-75
2024/04/10 00:23:40;;;;;;;6.40;1.67;;;6.50;99.90;;;7.43;100.00;98663.19;5379805;26;20503;-75
2024/04/10 00:26:07;;;;;;;1.77;1.27;;;6.40;99.90;;;7.43;100.00;98663.19;5384206;26;20499;-75
2024/04/10 00:28:37;;;;;;;3.73;1.27;;;6.40;99.90;;;7.29;100.00;98657.75;5385314;26;20539;-75
2024/04/10 00:31:07;;;;;;;3.80;1.40;;;6.30;99.90;;;7.24;100.00;98658.19;5380079;26;21041;-75
2024/04/10 00:33:38;;;;;;;7.63;2.27;;;6.30;99.90;;;7.33;100.00;98672.06;5380857;26;20493;-75
2024/04/10 00:36:11;;;;;;;8.30;1.60;;;6.40;99.90;;;7.28;100.00;98669.09;5382309;26;20487;-75
2024/04/10 00:38:41;;;;;;;4.03;1.53;;;6.40;99.90;;;7.27;100.00;98673.50;5380817;26;20608;-75
2024/04/10 00:41:08;;;;;;;4.10;1.40;;;6.30;99.90;;;7.20;100.00;98663.81;5380990;26;20571;-75
2024/04/10 00:43:39;;;;;;;2.60;1.43;;;6.20;99.90;;;7.26;100.00;98677.03;5382574;26;20489;-75
2024/04/10 00:47:59;;;;;;;2.77;1.33;;;6.30;99.90;;;7.23;100.00;98671.31;5545975;25;20982;-75
2024/04/10 00:50:28;;;;;;;5.70;1.40;;;6.30;99.90;;;7.14;100.00;98678.25;5545950;25;20547;-75
2024/04/10 00:52:59;;;;;;;6.40;1.23;;;6.20;99.90;;;7.16;100.00;98684.13;5546075;25;20904;-75
2024/04/10 00:55:27;;;;;;;3.17;1.27;;;6.20;99.90;;;7.12;100.00;98693.19;5555271;25;20584;-75
2024/04/10 00:57:58;;;;;;;3.57;1.20;;;6.10;99.90;;;7.04;100.00;98690.53;5551651;25;21143;-75
2024/04/10 01:00:26;;;;;;;6.23;1.33;;;6.00;99.90;;;7.05;100.00;98697.34;5546432;25;20534;-75
2024/04/10 01:02:59;;;;;;;2.47;1.13;;;6.10;99.90;;;7.00;100.00;98696.97;5544333;25;20827;-75
2024/04/10 01:05:27;;;;;;;7.33;1.67;;;6.00;99.90;;;6.99;100.00;98685.75;5545160;25;20468;-74
2024/04/10 01:07:57;;;;;;;1.70;1.10;;;6.10;99.90;;;7.11;100.00;98696.75;5543751;25;20476;-75
2024/04/10 01:10:25;;;;;;;2.63;1.30;;;6.20;99.90;;;7.12;100.00;98690.56;5543553;25;21361;-75
2024/04/10 01:12:57;;;;;;;2.23;1.20;;;6.20;99.90;;;7.06;100.00;98689.41;5543254;25;21089;-75
2024/04/10 01:15:24;;;;;;;4.80;1.40;;;6.20;99.90;;;7.02;100.00;98702.84;5550848;25;21115;-75
2024/04/10 01:17:54;;;;;;;33.37;13.20;;;6.10;99.90;;;7.13;100.00;98699.19;5546803;25;20475;-77
2024/04/10 01:20:25;;;;;;;9.00;4.33;;;6.20;99.90;;;7.12;100.00;98711.38;5543550;25;20489;-75
2024/04/10 01:22:56;;;;;;;2.20;1.40;;;6.20;99.90;;;7.11;100.00;98709.75;5543010;25;20516;-74
2024/04/10 01:25:27;;;;;;;1.90;1.23;;;6.20;99.90;;;7.05;100.00;98715.53;5546501;25;21028;-74
2024/04/10 01:27:57;;;;;;;5.20;1.60;;;6.10;99.90;;;7.08;100.00;98715.25;5546354;25;20605;-75
2024/04/10 01:30:27;;;;;;;6.53;1.43;;;6.10;99.90;;;6.95;100.00;98714.78;5544334;25;20908;-75
2024/04/10 01:32:55;;;;;;;3.57;1.30;;;6.00;99.90;;;6.98;100.00;98719.69;5544316;25;20598;-75
2024/04/10 01:35:25;;;;;;;7.03;1.60;;;6.10;99.90;;;7.01;100.00;98722.03;5550342;25;20482;-75
2024/04/10 01:37:53;;;;;;;2.50;1.23;;;6.10;99.90;;;6.92;100.00;98731.50;5546016;25;20529;-74
2024/04/10 01:40:25;;;;;;;1.50;1.27;;;6.10;99.90;;;6.90;100.00;98733.44;5544848;25;20478;-74
2024/04/10 01:42:56;;;;;;;3.27;1.20;;;6.10;99.90;;;6.83;100.00;98741.97;5546092;25;21351;-75
2024/04/10 01:45:26;;;;;;;2.00;1.40;;;5.90;99.90;;;6.84;100.00;98748.78;5543990;25;20516;-73
2024/04/10 01:47:53;;;;;;;18.33;1.93;;;5.90;99.90;;;6.87;100.00;98753.72;5540004;25;20996;-74
2024/04/10 01:50:24;;;;;;;10.70;1.33;;;5.90;99.90;;;6.98;100.00;98745.69;5543754;25;20470;-74
2024/04/10 01:52:51;;;;;;;4.87;1.33;;;6.00;99.90;;;6.94;100.00;98746.97;5546161;25;20473;-75
2024/04/10 01:55:22;;;;;;;5.63;1.70;;;6.00;99.90;;;6.91;100.00;98745.47;5545209;25;20574;-75
2024/04/10 01:57:49;;;;;;;7.43;1.70;;;6.00;99.90;;;7.02;100.00;98736.63;5538733;25;20481;-75
2024/04/10 02:00:24;;;;;;;4.13;1.50;;;6.10;99.90;;;7.12;100.00;98747.78;5526107;25;21236;-75
2024/04/10 02:02:52;;;;;;;4.40;1.40;;;6.20;99.90;;;7.10;100.00;98739.34;5532290;25;20474;-75
2024/04/10 02:05:23;;;;;;;2.40;1.23;;;6.20;99.90;;;7.13;100.00;98746.81;5525655;25;20573;-75
2024/04/10 02:07:51;;;;;;;4.60;1.30;;;6.20;99.90;;;7.18;100.00;98736.81;5530995;25;20469;-74
2024/04/10 02:10:21;;;;;;;5.23;1.50;;;6.30;99.90;;;7.26;100.00;98743.84;5528390;25;20518;-74
2024/04/10 02:12:49;;;;;;;15.93;1.60;;;6.40;99.90;;;7.33;100.00;98752.69;5527972;25;20479;-75
2024/04/10 02:15:22;;;;;;;5.77;1.47;;;6.50;99.90;;;7.34;100.00;98749.97;5533861;25;20469;-74
2024/04/10 02:17:49;;;;;;;3.87;1.63;;;6.40;99.90;;;7.32;100.00;98746.69;5528212;25;20465;-75
2024/04/10 02:20:21;;;;;;;5.23;1.20;;;6.40;99.90;;;7.39;100.00;98746.91;5525837;25;20536;-75
2024/04/10 02:22:49;;;;;;;3.00;1.80;;;6.40;99.90;;;7.43;100.00;98750.84;5528221;25;21008;-75
2024/04/10 02:25:19;;;;;;;5.10;1.60;;;6.50;99.90;;;7.49;100.00;98756.28;5530414;25;20475;-75
2024/04/10 02:27:47;;;;;;;7.40;1.50;;;6.60;99.90;;;7.56;100.00;98759.09;5528338;25;20483;-74
2024/04/10 02:30:18;;;;;;;5.50;1.63;;;6.60;99.90;;;7.60;100.00;98760.44;5527679;25;20474;-74
2024/04/10 02:32:49;;;;;;;6.60;1.73;;;6.60;99.90;;;7.55;100.00;98758.28;5526385;25;20475;-75
2024/04/10 02:35:20;;;;;;;2.93;1.23;;;6.60;99.90;;;7.45;100.00;98760.16;5526898;25;20614;-75
2024/04/10 02:37:50;;;;;;;11.20;1.60;;;6.50;99.90;;;7.49;100.00;98761.47;5527291;25;20806;-75
2024/04/10 02:40:20;;;;;;;2.20;1.27;;;6.50;99.90;;;7.57;100.00;98764.13;5526831;25;20675;-75
2024/04/10 02:42:57;;;;;;;6.50;1.43;;;6.60;99.90;;;7.58;100.00;98764.97;5527399;25;20812;-74
2024/04/10 02:45:28;;;;;;;7.57;1.40;;;6.70;99.90;;;7.55;100.00;98768.69;5530094;25;20656;-75
2024/04/10 02:47:58;;;;;;;2.57;1.70;;;6.60;99.90;;;7.63;100.00;98767.13;5529063;25;20561;-74
2024/04/10 02:50:28;;;;;;;1.50;1.27;;;6.70;99.90;;;7.54;100.00;98767.03;5526403;25;21026;-75
2024/04/10 02:52:57;;;;;;;4.60;1.20;;;6.70;99.90;;;7.57;100.00;98774.53;5531755;25;20523;-75
2024/04/10 02:55:27;;;;;;;9.50;1.70;;;6.70;99.90;;;7.67;100.00;98776.25;5527645;25;21143;-76
2024/04/10 02:57:55;;;;;;;4.30;1.37;;;6.80;99.90;;;7.70;100.00;98775.97;5525025;25;20580;-76
2024/04/10 03:00:25;;;;;;;3.13;1.67;;;6.80;99.90;;;7.70;100.00;98778.56;5526990;25;20472;-75
2024/04/10 03:02:53;;;;;;;3.60;1.53;;;6.90;99.90;;;7.70;100.00;98784.59;5527659;25;20478;-75
2024/04/10 03:05:26;;;;;;;5.50;1.63;;;6.90;99.90;;;7.74;100.00;98791.09;5526496;25;20547;-75
2024/04/10 03:07:55;;;;;;;8.37;1.80;;;6.90;99.90;;;7.81;100.00;98791.34;5526928;25;21033;-75
2024/04/10 03:10:28;;;;;;;3.93;1.33;;;6.90;99.90;;;7.85;100.00;98795.25;5523868;25;20477;-80
2024/04/10 03:12:55;;;;;;;15.00;3.70;;;6.90;99.90;;;7.82;100.00;98801.59;5522848;25;20472;-75
2024/04/10 03:15:25;;;;;;;6.17;2.20;;;7.00;99.90;;;7.86;100.00;98799.50;5524555;25;21481;-74
2024/04/10 03:17:54;;;;;;;4.70;2.00;;;7.00;99.90;;;7.89;100.00;98804.41;5525928;25;20489;-75
2024/04/10 03:20:27;;;;;;;3.53;1.43;;;7.10;99.90;;;7.96;100.00;98802.84;5523181;25;22761;-75
2024/04/10 03:22:55;;;;;;;9.03;1.80;;;7.10;99.90;;;7.94;100.00;98810.00;5520689;25;22870;-76
2024/04/10 03:25:25;;;;;;;5.73;2.17;;;7.10;99.90;;;7.97;100.00;98822.72;5523727;25;20465;-81
2024/04/10 03:27:56;;;;;;;10.27;1.87;;;7.10;99.90;;;8.02;100.00;98831.69;5522502;25;20476;-76
2024/04/10 03:30:27;;;;;;;6.43;1.83;;;7.10;99.90;;;8.06;100.00;98835.63;5519036;25;20552;-75
2024/04/10 03:32:55;;;;;;;4.10;1.57;;;7.20;99.90;;;8.10;100.00;98841.34;5525819;25;20480;-75
2024/04/10 03:35:28;;;;;;;5.13;1.60;;;7.20;99.90;;;8.10;100.00;98839.56;5528607;25;21669;-75
2024/04/10 03:37:56;;;;;;;4.87;1.67;;;7.20;99.90;;;8.13;100.00;98833.22;5530156;25;20560;-75
2024/04/10 03:40:28;;;;;;;6.40;1.67;;;7.30;99.90;;;8.15;100.00;98836.53;5526444;25;20601;-75
2024/04/10 03:42:58;;;;;;;7.80;1.47;;;7.30;99.90;;;8.12;100.00;98839.44;5525440;25;20479;-76
2024/04/10 03:45:28;;;;;;;4.00;1.40;;;7.20;99.90;;;8.18;100.00;98835.41;5525129;25;20605;-75
2024/04/10 03:47:59;;;;;;;246.80;121.03;;;7.30;99.90;;;8.22;100.00;98839.34;5523016;25;20566;-75
2024/04/10 03:50:32;;;;;;;17.70;6.10;;;7.40;99.90;;;8.26;100.00;98844.06;5523808;25;20515;-76
2024/04/10 03:53:03;;;;;;;6.03;2.00;;;7.40;99.90;;;8.24;100.00;98851.22;5521274;25;20472;-76
2024/04/10 03:55:30;;;;;;;7.80;1.93;;;7.40;99.90;;;8.29;100.00;98854.25;5524983;25;20809;-75
2024/04/10 03:58:01;;;;;;;8.77;1.53;;;7.40;99.90;;;8.31;100.00;98859.28;5524913;25;20608;-75
2024/04/10 04:00:28;;;;;;;2.53;1.50;;;7.50;99.90;;;8.28;100.00;98863.03;5524335;25;21249;-76
2024/04/10 04:02:59;;;;;;;5.13;1.70;;;7.50;99.90;;;8.31;100.00;98873.13;5521339;25;20456;-75
2024/04/10 04:05:29;;;;;;;8.53;2.17;;;7.50;99.90;;;8.36;100.00;98880.50;5521824;25;20539;-74
2024/04/10 04:08:00;;;;;;;7.30;1.97;;;7.50;99.90;;;8.39;100.00;98875.81;5522383;25;20569;-75
2024/04/10 04:10:27;;;;;;;5.43;1.60;;;7.60;99.90;;;8.44;100.00;98889.19;5525439;25;20533;-76
2024/04/10 04:12:58;;;;;;;18.33;1.97;;;7.60;99.90;;;8.47;100.00;98888.88;5523650;25;20572;-76
2024/04/10 04:15:25;;;;;;;11.23;2.23;;;7.60;99.90;;;8.45;100.00;98885.63;5520392;25;20477;-75
2024/04/10 04:17:56;;;;;;;8.23;1.93;;;7.70;99.90;;;8.41;100.00;98894.69;5521669;25;20589;-75
2024/04/10 04:20:23;;;;;;;9.83;1.60;;;7.70;99.90;;;8.43;100.00;98895.38;5514773;25;21359;-75
2024/04/10 04:22:56;;;;;;;32.97;13.33;;;7.70;99.90;;;8.44;100.00;98899.59;5514407;25;20483;-79
2024/04/10 04:25:24;;;;;;;9.53;3.37;;;7.70;99.90;;;8.40;100.00;98906.09;5513951;25;21094;-75
2024/04/10 04:27:54;;;;;;;7.10;1.90;;;7.60;99.90;;;8.47;100.00;98911.50;5512968;25;21076;-75
2024/04/10 04:30:22;;;;;;;11.67;2.00;;;7.60;99.90;;;8.49;100.00;98915.63;5511788;25;20592;-74
2024/04/10 04:32:53;;;;;;;8.00;1.90;;;7.70;99.90;;;8.52;100.00;98932.72;5514333;25;20546;-79
2024/04/10 04:35:21;;;;;;;14.03;3.30;;;7.60;99.90;;;8.55;100.00;98929.81;5513172;25;20535;-76
2024/04/10 04:38:00;;;;;;;12.10;2.43;;;7.60;99.90;;;8.54;100.00;98936.81;5517419;25;20590;-76
2024/04/10 04:40:30;;;;;;;12.00;2.37;;;7.60;99.90;;;8.53;100.00;98935.19;5513401;25;20561;-75
2024/04/10 04:43:02;;;;;;;6.30;1.83;;;7.70;99.90;;;8.53;100.00;98934.38;5523573;25;20532;-76
2024/04/10 04:45:30;;;;;;;6.83;1.87;;;7.70;99.90;;;8.48;100.00;98942.66;5527952;25;20496;-75
2024/04/10 04:48:00;;;;;;;5.53;1.53;;;7.60;99.90;;;8.39;100.00;98946.16;5527178;25;20491;-75
2024/04/10 04:50:29;;;;;;;5.90;1.53;;;7.50;99.90;;;8.31;100.00;98955.69;5528033;25;20543;-75
2024/04/10 04:53:02;;;;;;;9.40;2.37;;;7.40;99.90;;;8.26;100.00;98947.50;5526231;25;20470;-75
2024/04/10 04:55:31;;;;;;;3.40;1.63;;;7.30;99.90;;;8.29;100.00;98948.03;5529376;25;20482;-75
2024/04/10 04:58:01;;;;;;;1.63;1.37;;;7.40;99.90;;;8.28;100.00;98961.19;5528335;25;21548;-75
2024/04/10 05:00:29;;;;;;;12.03;2.33;;;7.40;99.90;;;8.25;100.00;98949.28;5531293;25;20601;-75
2024/04/10 05:03:00;;;;;;;9.77;1.70;;;7.40;99.90;;;8.23;100.00;98959.00;5528920;25;20480;-77
2024/04/10 05:05:28;;;;;;;6.30;1.60;;;7.30;99.90;;;8.21;100.00;98954.94;5527259;25;20560;-75
2024/04/10 05:08:02;;;;;;;2.40;1.40;;;7.30;99.90;;;8.19;100.00;98973.28;5526053;25;20474;-76
2024/04/10 05:10:33;;;;;;;8.60;2.07;;;7.40;99.90;;;8.16;100.00;98970.19;5529038;25;20617;-76
2024/04/10 05:13:01;;;;;;;5.13;1.80;;;7.30;99.90;;;8.11;100.00;98975.84;5525708;25;20478;-76
2024/04/10 05:15:31;;;;;;;7.43;1.50;;;7.20;99.90;;;8.05;100.00;98982.44;5527757;25;20477;-75
2024/04/10 05:17:59;;;;;;;9.70;2.17;;;7.10;99.90;;;7.95;100.00;98991.28;5530912;25;20861;-75
2024/04/10 05:20:30;;;;;;;11.33;2.30;;;6.90;99.90;;;7.84;100.00;98988.91;5523631;25;20529;-76
2024/04/10 05:23:00;;;;;;;8.53;2.40;;;6.80;99.90;;;7.77;100.00;98993.06;5529031;25;20605;-75
2024/04/10 05:25:31;;;;;;;6.67;3.10;;;6.70;99.90;;;7.75;100.00;98992.38;5525988;25;20469;-76
2024/04/10 05:27:59;;;;;;;8.47;1.90;;;6.70;99.90;;;7.73;100.00;98991.72;5526040;25;20556;-75
2024/04/10 05:30:29;;;;;;;3.33;1.70;;;6.70;99.90;;;7.75;100.00;98993.19;5527333;25;20536;-75
2024/04/10 05:32:57;;;;;;;9.60;2.00;;;6.80;99.90;;;7.76;100.00;98994.03;5526346;25;22037;-75
2024/04/10 05:35:28;;;;;;;6.07;1.53;;;6.70;99.90;;;7.79;100.00;99001.53;5529827;25;20464;-75
2024/04/10 05:37:59;;;;;;;12.03;3.80;;;6.80;99.90;;;7.78;100.00;99007.69;5531659;25;21729;-76
2024/04/10 05:40:30;;;;;;;5.17;1.63;;;6.80;99.90;;;7.78;100.00;99012.91;5532334;25;20579;-75
2024/04/10 05:42:57;;;;;;;3.80;1.50;;;6.80;99.90;;;7.73;100.00;99012.53;5532936;25;20474;-75
2024/04/10 05:45:28;;;;;;;6.97;1.80;;;6.70;99.90;;;7.72;100.00;99021.31;5531046;25;20544;-75
2024/04/10 05:47:56;;;;;;;6.60;2.07;;;6.70;99.90;;;7.71;100.00;99030.06;5532070;25;21000;-75
2024/04/10 05:50:26;;;;;;;9.60;2.00;;;6.80;99.90;;;7.75;100.00;99032.25;5533649;25;20475;-75
2024/04/10 05:52:54;;;;;;;5.87;1.57;;;6.80;99.90;;;7.75;100.00;99034.84;5534307;25;20522;-75
2024/04/10 05:55:27;;;;;;;20.00;2.40;;;6.80;99.90;;;7.76;100.00;99039.09;5531323;25;20882;-75
2024/04/10 05:57:58;;;;;;;5.83;2.03;;;6.90;99.90;;;7.76;100.00;99049.50;5532328;25;20544;-75
2024/04/10 06:00:26;;;;;;;5.43;2.00;;;6.90;99.90;;;7.80;100.00;99052.66;5528135;25;20861;-75
2024/04/10 06:02:56;;;;;;;10.80;1.97;;;6.90;99.90;;;7.84;100.00;99046.19;5532043;25;20472;-75
2024/04/10 06:05:25;;;;;;;12.13;2.13;;;7.00;99.90;;;7.89;100.00;99054.38;5531874;25;20555;-75
2024/04/10 06:07:55;;;;;;;8.33;2.10;;;7.00;99.90;;;7.91;100.00;99049.88;5530403;25;20586;-75
2024/04/10 06:10:26;;;;;;;7.33;1.87;;;7.00;99.90;;;7.95;100.00;99056.41;5529172;25;20479;-75
2024/04/10 06:12:56;;;;;;;5.87;1.90;;;7.00;99.90;;;8.02;100.00;99054.84;5531266;25;20474;-75
2024/04/10 06:15:24;;;;;;;11.87;2.67;;;7.10;99.90;;;8.02;100.00;99058.28;5530834;25;20467;-75
2024/04/10 06:17:54;;;;;;;6.73;1.70;;;7.10;99.90;;;8.05;100.00;99054.59;5528535;25;20480;-75
2024/04/10 06:20:23;;;;;;;8.13;1.80;;;7.20;99.90;;;8.04;100.00;99053.75;5530627;25;20520;-75
2024/04/10 06:22:53;;;;;;;12.13;2.20;;;7.20;99.90;;;8.11;100.00;99054.00;5529830;25;20889;-75
2024/04/10 06:25:21;;;;;;;13.00;2.73;;;7.20;99.90;;;8.12;100.00;99060.03;5531364;25;20519;-76
2024/04/10 06:27:54;;;;;;;3.90;1.80;;;7.30;99.90;;;8.15;100.00;99063.16;5532820;25;20480;-75
2024/04/10 06:30:22;;;;;;;14.53;1.50;;;7.30;99.90;;;8.17;100.00;99069.03;5528112;25;20481;-76
2024/04/10 06:32:52;;;;;;;3.73;1.57;;;7.40;99.90;;;8.16;100.00;99071.78;5529775;25;20837;-75
2024/04/10 06:35:21;;;;;;;12.63;1.60;;;7.30;99.90;;;8.25;100.00;99071.72;5531706;25;20488;-75
2024/04/10 06:37:51;;;;;;;5.00;2.10;;;7.40;99.90;;;8.33;100.00;99082.25;5532768;25;20603;-76
2024/04/10 06:40:19;;;;;;;8.37;2.60;;;7.50;99.90;;;8.39;100.00;99081.69;5530156;25;20539;-76
2024/04/10 06:42:50;;;;;;;7.20;1.80;;;7.60;99.90;;;8.45;100.00;99078.47;5530238;25;21110;-75
2024/04/10 06:45:20;;;;;;;7.60;2.20;;;7.60;99.90;;;8.44;100.00;99087.25;5530209;25;21168;-75
2024/04/10 06:47:51;;;;;;;6.50;1.80;;;7.70;99.90;;;8.46;100.00;99085.34;5529781;25;20501;-75
2024/04/10 06:50:18;;;;;;;9.80;2.20;;;7.70;99.90;;;8.51;100.00;99090.09;5527866;25;20537;-75
2024/04/10 06:52:49;;;;;;;4.00;1.40;;;7.70;99.90;;;8.55;100.00;99097.47;5531592;25;20484;-75
2024/04/10 06:55:17;;;;;;;8.63;2.60;;;7.80;99.90;;;8.58;100.00;99101.56;5525493;25;20476;-75
2024/04/10 06:57:47;;;;;;;11.00;3.13;;;7.90;99.90;;;8.63;100.00;99111.56;5529130;25;20525;-75
2024/04/10 07:00:16;;;;;;;4.83;1.77;;;7.90;99.90;;;8.69;100.00;99116.16;5531868;25;20487;-75
2024/04/10 07:02:49;;;;;;;7.37;2.33;;;8.00;99.90;;;8.73;100.00;99117.53;5530290;25;20877;-75
2024/04/10 07:05:17;;;;;;;9.37;2.27;;;8.00;99.90;;;8.79;100.00;99122.13;5531801;25;20482;-75
2024/04/10 07:07:48;;;;;;;4.17;1.70;;;8.00;99.90;;;8.83;100.00;99133.91;5530446;25;20526;-75
2024/04/10 07:10:16;;;;;;;9.57;3.17;;;8.20;99.90;;;8.90;100.00;99134.94;5528716;25;20528;-75
2024/04/10 07:12:46;;;;;;;3.93;1.93;;;8.20;99.90;;;8.95;100.00;99138.78;5530639;25;20516;-75
2024/04/10 07:15:17;;;;;;;4.27;2.00;;;8.20;99.90;;;8.98;100.00;99141.06;5527647;25;20464;-76
2024/04/10 07:17:47;;;;;;;8.20;2.47;;;8.30;99.90;;;8.98;100.00;99146.28;5525263;25;21164;-75
2024/04/10 07:20:18;;;;;;;14.00;2.47;;;8.20;99.90;;;9.02;100.00;99154.63;5528376;25;20878;-75
2024/04/10 07:22:46;;;;;;;14.87;2.50;;;8.40;99.90;;;9.07;100.00;99152.38;5528287;25;22451;-76
2024/04/10 07:25:17;;;;;;;6.37;1.70;;;8.40;99.90;;;9.08;100.00;99154.03;5528291;25;20530;-75
2024/04/10 07:27:45;;;;;;;11.37;2.30;;;8.40;99.90;;;9.07;100.00;99155.00;5528424;25;20475;-76
2024/04/10 07:30:16;;;;;;;9.57;2.93;;;8.50;99.90;;;9.10;100.00;99162.53;5530029;25;20477;-76
2024/04/10 07:32:43;;;;;;;10.57;2.13;;;8.40;99.90;;;9.13;100.00;99164.03;5531879;25;20489;-75
2024/04/10 07:35:17;;;;;;;9.43;2.20;;;8.40;99.90;;;9.19;100.00;99166.84;5529180;25;20558;-75
2024/04/10 07:37:45;;;;;;;13.50;2.60;;;8.50;99.90;;;9.21;100.00;99159.69;5532347;25;20475;-75
2024/04/10 07:40:15;;;;;;;7.37;2.60;;;8.50;99.90;;;9.21;100.00;99170.13;5527072;25;20552;-75
2024/04/10 07:42:43;;;;;;;8.33;2.40;;;8.50;99.90;;;9.30;100.00;99174.41;5530975;25;20889;-75
2024/04/10 07:45:14;;;;;;;12.97;1.70;;;8.60;99.90;;;9.24;100.00;99177.66;5528607;25;21118;-76
2024/04/10 07:47:42;;;;;;;4.80;1.97;;;8.70;99.90;;;9.32;100.00;99177.72;5528994;25;20801;-75
2024/04/10 07:50:16;;;;;;;20.90;2.40;;;8.70;99.90;;;9.31;100.00;99181.28;5531675;25;20810;-75
2024/04/10 07:52:43;;;;;;;6.87;1.50;;;8.80;99.90;;;9.36;100.00;99184.28;5531362;25;20465;-75
2024/04/10 07:55:14;;;;;;;7.73;2.00;;;8.80;99.90;;;9.42;100.00;99188.06;5530272;25;20515;-75
2024/04/10 07:57:44;;;;;;;6.53;2.13;;;8.80;99.90;;;9.43;100.00;99193.16;5528036;25;20489;-75
2024/04/10 08:00:14;;;;;;;5.50;1.63;;;8.70;99.90;;;9.45;100.00;99190.38;5533497;25;20471;-75
2024/04/10 08:02:45;;;;;;;6.70;2.20;;;8.80;99.90;;;9.54;100.00;99194.72;5530171;25;20491;-75
2024/04/10 08:05:16;;;;;;;2.63;1.53;;;8.80;99.90;;;9.57;100.00;99200.44;5529684;25;20535;-75
2024/04/10 08:07:47;;;;;;;6.10;2.00;;;8.90;99.90;;;9.60;100.00;99199.31;5526305;25;20480;-75
2024/04/10 08:10:14;;;;;;;5.67;2.00;;;8.80;99.90;;;9.67;100.00;99191.69;5528848;25;20484;-75
2024/04/10 08:12:45;;;;;;;4.00;1.83;;;8.90;99.90;;;9.66;100.00;99193.47;5527825;25;21044;-75
2024/04/10 08:15:13;;;;;;;12.90;2.97;;;8.90;99.90;;;9.69;100.00;99200.16;5527233;25;20568;-75
2024/04/10 08:17:43;;;;;;;5.47;1.90;;;8.90;99.90;;;9.72;100.00;99203.28;5529114;25;20595;-75
2024/04/10 08:20:11;;;;;;;10.13;1.93;;;8.90;99.90;;;9.75;100.00;99210.03;5528875;25;20502;-75
2024/04/10 08:22:46;;;;;;;7.80;2.23;;;9.00;99.90;;;9.77;100.00;99214.13;5528906;25;20538;-75
2024/04/10 08:25:14;;;;;;;3.40;1.83;;;9.00;99.90;;;9.84;100.00;99211.72;5527298;25;20476;-75
2024/04/10 08:27:44;;;;;;;9.53;2.07;;;9.10;99.90;;;9.87;100.00;99224.47;5528699;25;20516;-75
2024/04/10 08:30:12;;;;;;;9.07;2.20;;;9.10;99.90;;;9.93;100.00;99218.63;5528440;25;20523;-75
2024/04/10 08:32:43;;;;;;;5.23;1.87;;;9.20;99.90;;;9.99;100.00;99210.19;5530412;25;21171;-75
2024/04/10 08:35:11;;;;;;;7.60;1.37;;;9.30;99.90;;;10.04;100.00;99213.13;5527956;25;20539;-75
2024/04/10 08:37:42;;;;;;;7.50;1.90;;;9.30;99.90;;;10.11;100.00;99216.78;5526967;25;20537;-75
2024/04/10 08:40:12;;;;;;;4.83;2.20;;;9.40;99.90;;;10.16;100.00;99224.19;5527640;25;21352;-74
2024/04/10 08:42:49;;;;;;;8.60;2.33;;;9.40;99.90;;;10.23;100.00;99220.81;5527205;25;21046;-74
2024/04/10 08:45:20;;;;;;;8.23;2.10;;;9.50;99.90;;;10.30;100.00;99216.59;5527435;25;20483;-74
2024/04/10 08:47:51;;;;;;;18.27;2.40;;;9.50;99.90;;;10.33;100.00;99221.50;5528222;25;20548;-75
2024/04/10 08:50:20;;;;;;;3.80;1.40;;;9.60;99.90;;;10.37;100.00;99235.09;5527675;25;21106;-75
2024/04/10 08:52:53;;;;;;;7.10;1.90;;;9.70;99.90;;;10.41;100.00;99239.03;5529459;25;20561;-75
2024/04/10 08:55:24;;;;;;;5.97;2.10;;;9.70;99.90;;;10.38;100.00;99240.13;5529320;25;20562;-75
2024/04/10 08:57:54;;;;;;;4.83;1.30;;;9.70;99.90;;;10.38;100.00;99250.59;5526603;25;20575;-75
2024/04/10 09:00:22;;;;;;;6.00;1.70;;;9.70;99.90;;;10.41;100.00;99249.50;5528365;25;20566;-75
2024/04/10 09:02:52;;;;;;;5.70;1.57;;;9.70;99.90;;;10.50;100.00;99254.59;5527946;25;20599;-75
2024/04/10 09:05:29;;;;;;;10.10;2.10;;;9.70;99.90;;;10.55;100.00;99252.31;5528912;25;20599;-74
2024/04/10 09:08:03;;;;;;;2.60;1.47;;;9.90;99.90;;;10.64;100.00;99253.19;5528682;25;20471;-75
2024/04/10 09:10:33;;;;;;;2.80;1.40;;;9.90;99.90;;;10.70;100.00;99260.41;5530477;25;20980;-75
2024/04/10 09:13:07;;;;;;;8.40;1.80;;;10.00;99.90;;;10.73;100.00;99256.63;5532013;25;20542;-75
2024/04/10 09:15:36;;;;;;;6.80;1.27;;;10.00;99.90;;;10.74;100.00;99256.50;5533830;25;20531;-75
2024/04/10 09:18:09;;;;;;;8.03;2.80;;;10.10;99.90;;;10.80;100.00;99249.78;5533358;25;20478;-75
2024/04/10 09:20:37;;;;;;;8.83;2.00;;;10.10;99.90;;;10.80;100.00;99255.03;5531042;25;20580;-75
2024/04/10 09:23:10;;;;;;;5.70;1.30;;;10.00;99.90;;;10.87;100.00;99256.03;5530436;25;20522;-75
2024/04/10 09:25:42;;;;;;;4.30;1.87;;;10.10;99.90;;;10.93;100.00;99260.66;5534205;25;20513;-75
2024/04/10 09:28:14;;;;;;;2.97;1.70;;;10.30;99.90;;;10.99;100.00;99260.00;5532057;25;20596;-75
2024/04/10 09:30:42;;;;;;;3.70;1.43;;;10.30;99.90;;;11.01;100.00;99263.28;5531146;25;20474;-75
2024/04/10 09:33:14;;;;;;;18.30;8.13;;;10.40;99.90;;;11.03;100.00;99266.56;5528780;25;20480;-75
2024/04/10 09:35:42;;;;;;;15.27;4.27;;;10.30;99.90;;;11.06;100.00;99269.69;5526052;25;20541;-75
2024/04/10 09:38:14;;;;;;;8.80;2.23;;;10.30;99.90;;;11.08;100.00;99270.34;5528940;25;20467;-75
2024/04/10 09:41:00;;;;;;;3.97;1.30;;;10.30;99.90;;;11.16;100.00;99274.78;5528963;25;20594;-75
2024/04/10 09:43:33;;;;;;;4.97;1.70;;;10.30;99.90;;;11.26;100.00;99266.78;5527945;25;20596;-75
2024/04/10 09:46:03;;;;;;;8.73;1.63;;;10.40;99.90;;;11.35;100.00;99268.44;5531049;25;20970;-75
2024/04/10 09:48:36;;;;;;;4.83;1.63;;;10.50;99.90;;;11.44;100.00;99273.53;5532871;25;20531;-75
2024/04/10 09:51:05;;;;;;;11.03;3.73;;;10.70;99.90;;;11.45;100.00;99267.28;5531938;25;20474;-75
2024/04/10 09:53:37;;;;;;;5.67;1.60;;;10.70;98.90;;;11.59;100.00;99269.25;5532002;25;20476;-75
2024/04/10 09:56:09;;;;;;;4.77;1.70;;;10.90;99.80;;;11.66;100.00;99264.22;5529956;25;20527;-75
2024/04/10 09:58:42;;;;;;;5.20;1.50;;;11.00;99.10;;;11.72;100.00;99263.56;5528392;25;20842;-75
2024/04/10 10:01:09;;;;;;;3.10;1.33;;;11.10;99.20;;;11.72;100.00;99263.56;5528463;25;20552;-75
2024/04/10 10:03:41;;;;;;;4.00;1.57;;;11.00;98.30;;;11.71;100.00;99263.72;5531215;25;20517;-75
2024/04/10 10:06:09;;;;;;;4.53;1.40;;;11.10;98.30;;;11.77;100.00;99273.53;5530907;25;20576;-75
2024/04/10 10:08:51;;;;;;;9.70;1.33;;;11.10;98.90;;;11.86;100.00;99264.72;5530241;25;20469;-75
2024/04/10 10:11:22;;;;;;;2.13;1.43;;;11.10;99.90;;;11.87;100.00;99269.78;5529760;25;20490;-76
2024/04/10 10:14:00;;;;;;;2.87;1.30;;;11.10;99.60;;;11.94;100.00;99264.72;5529831;25;21126;-76
2024/04/10 10:16:28;;;;;;;4.80;1.60;;;11.20;99.70;;;11.90;100.00;99271.28;5531672;25;20542;-75
2024/04/10 10:19:04;;;;;;;3.30;1.50;;;11.10;98.70;;;11.88;100.00;99274.03;5528106;25;20471;-75
2024/04/10 10:21:32;;;;;;;3.63;1.43;;;11.10;99.00;;;11.87;100.00;99272.41;5533981;25;20525;-75
2024/04/10 10:24:06;;;;;;;3.30;1.47;;;11.10;99.70;;;11.89;100.00;99272.25;5528642;25;21177;-75
2024/04/10 10:26:37;;;;;;;2.23;1.10;;;11.30;99.90;;;11.81;100.00;99273.06;5530897;25;21242;-75
2024/04/10 10:29:10;;;;;;;6.53;1.80;;;11.20;99.50;;;11.80;100.00;99271.41;5530670;25;21072;-77
2024/04/10 10:31:42;;;;;;;6.17;1.37;;;11.10;99.10;;;11.82;100.00;99284.38;5528456;25;20532;-79
2024/04/10 10:34:14;;;;;;;3.80;1.53;;;11.10;99.40;;;11.78;100.00;99277.81;5532907;25;20488;-75
2024/04/10 10:36:42;;;;;;;3.90;1.30;;;11.20;99.10;;;11.76;100.00;99280.63;5533068;25;20463;-75